sensor_id;sensor_type;location;lat;lon;timestamp;temperature;humidity
57108;DHT22;42987;52.916;6.542;2023-09-19T00:00:38;14.60;99.90
57108;DHT22;42987;52.916;6.542;2023-09-19T00:03:03;14.60;99.90
57108;DHT22;42987;52.916;6.542;2023-09-19T00:05:33;14.50;99.90
57108;DHT22;42987;52.916;6.542;2023-09-19T00:08:00;14.50;99.90
57108;DHT22;42987;52.916;6.542;2023-09-19T00:10:26;14.40;99.90
57108;DHT22;42987;52.916;6.542;2023-09-19T00:12:55;14.40;99.90
57108;DHT22;42987;52.916;6.542;2023-09-19T00:15:22;14.40;99.90
57108;DHT22;42987;52.916;6.542;2023-09-19T00:17:47;14.40;99.90
57108;DHT22;42987;52.916;6.542;2023-09-19T00:20:14;14.30;99.90
57108;DHT22;42987;52.916;6.542;2023-09-19T00:22:44;14.30;99.90
57108;DHT22;42987;52.916;6.542;2023-09-19T00:25:10;14.20;99.90
57108;DHT22;42987;52.916;6.542;2023-09-19T00:27:37;14.20;99.90
57108;DHT22;42987;52.916;6.542;2023-09-19T00:30:08;14.20;99.90
57108;DHT22;42987;52.916;6.542;2023-09-19T00:32:38;14.10;99.90
57108;DHT22;42987;52.916;6.542;2023-09-19T00:35:04;14.10;99.90
57108;DHT22;42987;52.916;6.542;2023-09-19T00:37:30;14.10;99.90
57108;DHT22;42987;52.916;6.542;2023-09-19T00:39:55;14.00;99.90
57108;DHT22;42987;52.916;6.542;2023-09-19T00:42:21;14.00;99.90
57108;DHT22;42987;52.916;6.542;2023-09-19T00:44:50;14.00;99.90
57108;DHT22;42987;52.916;6.542;2023-09-19T00:47:17;13.90;99.90
57108;DHT22;42987;52.916;6.542;2023-09-19T00:49:45;13.90;99.90
57108;DHT22;42987;52.916;6.542;2023-09-19T00:52:14;13.90;99.90
57108;DHT22;42987;52.916;6.542;2023-09-19T00:54:41;13.80;99.90
57108;DHT22;42987;52.916;6.542;2023-09-19T00:57:10;13.80;99.90
57108;DHT22;42987;52.916;6.542;2023-09-19T00:59:35;13.80;99.90
57108;DHT22;42987;52.916;6.542;2023-09-19T01:02:02;13.80;99.90
57108;DHT22;42987;52.916;6.542;2023-09-19T01:04:28;13.70;99.90
57108;DHT22;42987;52.916;6.542;2023-09-19T01:06:53;13.70;99.90
57108;DHT22;42987;52.916;6.542;2023-09-19T01:09:19;13.70;99.90
57108;DHT22;42987;52.916;6.542;2023-09-19T01:11:47;13.70;99.90
57108;DHT22;42987;52.916;6.542;2023-09-19T01:16:44;13.70;99.90
57108;DHT22;42987;52.916;6.542;2023-09-19T01:22:06;13.70;99.90
57108;DHT22;42987;52.916;6.542;2023-09-19T01:29:44;13.70;99.90
57108;DHT22;42987;52.916;6.542;2023-09-19T01:32:10;13.70;99.90
57108;DHT22;42987;52.916;6.542;2023-09-19T01:34:46;13.70;99.90
57108;DHT22;42987;52.916;6.542;2023-09-19T01:37:13;13.70;99.90
57108;DHT22;42987;52.916;6.542;2023-09-19T01:39:40;13.70;99.90
57108;DHT22;42987;52.916;6.542;2023-09-19T01:42:14;13.60;99.90
57108;DHT22;42987;52.916;6.542;2023-09-19T01:47:23;13.60;99.90
57108;DHT22;42987;52.916;6.542;2023-09-19T01:49:56;13.60;99.90
57108;DHT22;42987;52.916;6.542;2023-09-19T01:52:28;13.60;99.90
57108;DHT22;42987;52.916;6.542;2023-09-19T01:55:01;13.50;99.90
57108;DHT22;42987;52.916;6.542;2023-09-19T01:57:34;13.50;99.90
57108;DHT22;42987;52.916;6.542;2023-09-19T02:00:07;13.50;99.90
57108;DHT22;42987;52.916;6.542;2023-09-19T02:02:38;13.50;99.90
57108;DHT22;42987;52.916;6.542;2023-09-19T02:05:04;13.50;99.90
57108;DHT22;42987;52.916;6.542;2023-09-19T02:07:30;13.40;99.90
57108;DHT22;42987;52.916;6.542;2023-09-19T02:09:57;13.40;99.90
57108;DHT22;42987;52.916;6.542;2023-09-19T02:12:28;13.30;99.90
57108;DHT22;42987;52.916;6.542;2023-09-19T02:14:55;13.30;99.90
57108;DHT22;42987;52.916;6.542;2023-09-19T02:17:22;13.30;99.90
57108;DHT22;42987;52.916;6.542;2023-09-19T02:19:52;13.20;99.90
57108;DHT22;42987;52.916;6.542;2023-09-19T02:22:18;13.20;99.90
57108;DHT22;42987;52.916;6.542;2023-09-19T02:24:43;13.20;99.90
57108;DHT22;42987;52.916;6.542;2023-09-19T02:27:09;13.10;99.90
57108;DHT22;42987;52.916;6.542;2023-09-19T02:29:38;13.10;99.90
57108;DHT22;42987;52.916;6.542;2023-09-19T02:32:03;13.10;99.90
57108;DHT22;42987;52.916;6.542;2023-09-19T02:34:29;13.10;99.90
57108;DHT22;42987;52.916;6.542;2023-09-19T02:36:54;13.10;99.90
57108;DHT22;42987;52.916;6.542;2023-09-19T02:39:21;13.10;99.90
57108;DHT22;42987;52.916;6.542;2023-09-19T02:41:49;13.10;99.90
57108;DHT22;42987;52.916;6.542;2023-09-19T02:44:14;13.00;99.90
57108;DHT22;42987;52.916;6.542;2023-09-19T02:46:40;13.00;99.90
57108;DHT22;42987;52.916;6.542;2023-09-19T02:49:06;13.10;99.90
57108;DHT22;42987;52.916;6.542;2023-09-19T02:51:32;13.00;99.90
57108;DHT22;42987;52.916;6.542;2023-09-19T02:54:01;13.00;99.90
57108;DHT22;42987;52.916;6.542;2023-09-19T02:56:28;13.00;99.90
57108;DHT22;42987;52.916;6.542;2023-09-19T02:58:55;13.00;99.90
57108;DHT22;42987;52.916;6.542;2023-09-19T03:01:21;13.00;99.90
57108;DHT22;42987;52.916;6.542;2023-09-19T03:03:46;12.90;99.90
57108;DHT22;42987;52.916;6.542;2023-09-19T03:06:12;12.90;99.90
57108;DHT22;42987;52.916;6.542;2023-09-19T03:08:38;13.00;99.90
57108;DHT22;42987;52.916;6.542;2023-09-19T03:11:05;13.00;99.90
57108;DHT22;42987;52.916;6.542;2023-09-19T03:13:31;13.00;99.90
57108;DHT22;42987;52.916;6.542;2023-09-19T03:15:57;13.00;99.90
57108;DHT22;42987;52.916;6.542;2023-09-19T03:18:26;13.00;99.90
57108;DHT22;42987;52.916;6.542;2023-09-19T03:20:53;13.00;99.90
57108;DHT22;42987;52.916;6.542;2023-09-19T03:23:20;13.10;99.90
57108;DHT22;42987;52.916;6.542;2023-09-19T03:25:45;13.10;99.90
57108;DHT22;42987;52.916;6.542;2023-09-19T03:28:12;13.10;99.90
57108;DHT22;42987;52.916;6.542;2023-09-19T03:30:37;13.10;99.90
57108;DHT22;42987;52.916;6.542;2023-09-19T03:33:04;13.10;99.90
57108;DHT22;42987;52.916;6.542;2023-09-19T03:35:30;13.10;99.90
57108;DHT22;42987;52.916;6.542;2023-09-19T03:37:56;13.10;99.90
57108;DHT22;42987;52.916;6.542;2023-09-19T03:40:22;13.20;99.90
57108;DHT22;42987;52.916;6.542;2023-09-19T03:42:48;13.20;99.90
57108;DHT22;42987;52.916;6.542;2023-09-19T03:45:14;13.20;99.90
57108;DHT22;42987;52.916;6.542;2023-09-19T03:47:41;13.20;99.90
57108;DHT22;42987;52.916;6.542;2023-09-19T03:50:09;13.20;99.90
57108;DHT22;42987;52.916;6.542;2023-09-19T03:52:40;13.20;99.90
57108;DHT22;42987;52.916;6.542;2023-09-19T03:55:06;13.20;99.90
57108;DHT22;42987;52.916;6.542;2023-09-19T03:57:32;13.20;99.90
57108;DHT22;42987;52.916;6.542;2023-09-19T03:59:58;13.20;99.90
57108;DHT22;42987;52.916;6.542;2023-09-19T04:02:23;13.10;99.90
57108;DHT22;42987;52.916;6.542;2023-09-19T04:04:50;13.10;99.90
57108;DHT22;42987;52.916;6.542;2023-09-19T04:07:16;13.10;99.90
57108;DHT22;42987;52.916;6.542;2023-09-19T04:09:42;13.10;99.90
57108;DHT22;42987;52.916;6.542;2023-09-19T04:12:07;13.10;99.90
57108;DHT22;42987;52.916;6.542;2023-09-19T04:14:39;13.10;99.90
57108;DHT22;42987;52.916;6.542;2023-09-19T04:17:05;13.10;99.90
57108;DHT22;42987;52.916;6.542;2023-09-19T04:19:31;13.10;99.90
57108;DHT22;42987;52.916;6.542;2023-09-19T04:21:57;13.10;99.90
57108;DHT22;42987;52.916;6.542;2023-09-19T04:24:22;13.20;99.90
57108;DHT22;42987;52.916;6.542;2023-09-19T04:26:48;13.20;99.90
57108;DHT22;42987;52.916;6.542;2023-09-19T04:29:13;13.20;99.90
57108;DHT22;42987;52.916;6.542;2023-09-19T04:31:39;13.20;99.90
57108;DHT22;42987;52.916;6.542;2023-09-19T04:34:06;13.30;99.90
57108;DHT22;42987;52.916;6.542;2023-09-19T04:36:31;13.30;99.90
57108;DHT22;42987;52.916;6.542;2023-09-19T04:38:57;13.30;99.90
57108;DHT22;42987;52.916;6.542;2023-09-19T04:41:23;13.40;99.90
57108;DHT22;42987;52.916;6.542;2023-09-19T04:43:48;13.40;99.90
57108;DHT22;42987;52.916;6.542;2023-09-19T04:46:16;13.40;99.90
57108;DHT22;42987;52.916;6.542;2023-09-19T04:48:43;13.40;99.90
57108;DHT22;42987;52.916;6.542;2023-09-19T04:51:08;13.40;99.90
57108;DHT22;42987;52.916;6.542;2023-09-19T04:53:35;13.50;99.90
57108;DHT22;42987;52.916;6.542;2023-09-19T04:56:01;13.50;99.90
57108;DHT22;42987;52.916;6.542;2023-09-19T04:58:29;13.50;99.90
57108;DHT22;42987;52.916;6.542;2023-09-19T05:00:55;13.50;99.90
57108;DHT22;42987;52.916;6.542;2023-09-19T05:03:22;13.50;99.90
57108;DHT22;42987;52.916;6.542;2023-09-19T05:05:48;13.50;99.90
57108;DHT22;42987;52.916;6.542;2023-09-19T05:08:14;13.50;99.90
57108;DHT22;42987;52.916;6.542;2023-09-19T05:10:40;13.50;99.90
57108;DHT22;42987;52.916;6.542;2023-09-19T05:13:06;13.50;99.90
57108;DHT22;42987;52.916;6.542;2023-09-19T05:15:35;13.50;99.90
57108;DHT22;42987;52.916;6.542;2023-09-19T05:18:02;13.50;99.90
57108;DHT22;42987;52.916;6.542;2023-09-19T05:20:29;13.50;99.90
57108;DHT22;42987;52.916;6.542;2023-09-19T05:23:01;13.50;99.90
57108;DHT22;42987;52.916;6.542;2023-09-19T05:25:28;13.50;99.90
57108;DHT22;42987;52.916;6.542;2023-09-19T05:27:56;13.50;99.90
57108;DHT22;42987;52.916;6.542;2023-09-19T05:30:23;13.50;99.90
57108;DHT22;42987;52.916;6.542;2023-09-19T05:32:49;13.50;99.90
57108;DHT22;42987;52.916;6.542;2023-09-19T05:35:15;13.40;99.90
57108;DHT22;42987;52.916;6.542;2023-09-19T05:37:44;13.40;99.90
57108;DHT22;42987;52.916;6.542;2023-09-19T05:40:10;13.40;99.90
57108;DHT22;42987;52.916;6.542;2023-09-19T05:42:37;13.40;99.90
57108;DHT22;42987;52.916;6.542;2023-09-19T05:45:05;13.40;99.90
57108;DHT22;42987;52.916;6.542;2023-09-19T05:47:32;13.40;99.90
57108;DHT22;42987;52.916;6.542;2023-09-19T05:49:57;13.40;99.90
57108;DHT22;42987;52.916;6.542;2023-09-19T05:52:24;13.40;99.90
57108;DHT22;42987;52.916;6.542;2023-09-19T05:54:50;13.30;99.90
57108;DHT22;42987;52.916;6.542;2023-09-19T05:57:16;13.30;99.90
57108;DHT22;42987;52.916;6.542;2023-09-19T05:59:42;13.30;99.90
57108;DHT22;42987;52.916;6.542;2023-09-19T06:02:08;13.30;99.90
57108;DHT22;42987;52.916;6.542;2023-09-19T06:04:35;13.30;99.90
57108;DHT22;42987;52.916;6.542;2023-09-19T06:07:01;13.20;99.90
57108;DHT22;42987;52.916;6.542;2023-09-19T06:09:31;13.20;99.90
57108;DHT22;42987;52.916;6.542;2023-09-19T06:11:57;13.20;99.90
57108;DHT22;42987;52.916;6.542;2023-09-19T06:14:23;13.20;99.90
57108;DHT22;42987;52.916;6.542;2023-09-19T06:16:50;13.20;99.90
57108;DHT22;42987;52.916;6.542;2023-09-19T06:19:15;13.20;99.90
57108;DHT22;42987;52.916;6.542;2023-09-19T06:21:44;13.20;99.90
57108;DHT22;42987;52.916;6.542;2023-09-19T06:24:10;13.20;99.90
57108;DHT22;42987;52.916;6.542;2023-09-19T06:26:37;13.20;99.90
57108;DHT22;42987;52.916;6.542;2023-09-19T06:29:02;13.20;99.90
57108;DHT22;42987;52.916;6.542;2023-09-19T06:31:29;13.30;99.90
57108;DHT22;42987;52.916;6.542;2023-09-19T06:33:56;13.30;99.90
57108;DHT22;42987;52.916;6.542;2023-09-19T06:36:22;13.30;99.90
57108;DHT22;42987;52.916;6.542;2023-09-19T06:38:48;13.30;99.90
57108;DHT22;42987;52.916;6.542;2023-09-19T06:41:14;13.30;99.90
57108;DHT22;42987;52.916;6.542;2023-09-19T06:43:42;13.30;99.90
57108;DHT22;42987;52.916;6.542;2023-09-19T06:46:08;13.30;99.90
57108;DHT22;42987;52.916;6.542;2023-09-19T06:48:35;13.20;99.90
57108;DHT22;42987;52.916;6.542;2023-09-19T06:51:00;13.20;99.90
57108;DHT22;42987;52.916;6.542;2023-09-19T06:53:31;13.20;99.90
57108;DHT22;42987;52.916;6.542;2023-09-19T06:55:57;13.20;99.90
57108;DHT22;42987;52.916;6.542;2023-09-19T06:58:23;13.20;99.90
57108;DHT22;42987;52.916;6.542;2023-09-19T07:00:48;13.20;99.90
57108;DHT22;42987;52.916;6.542;2023-09-19T07:03:15;13.20;99.90
57108;DHT22;42987;52.916;6.542;2023-09-19T07:05:46;13.30;99.90
57108;DHT22;42987;52.916;6.542;2023-09-19T07:08:12;13.40;99.90
57108;DHT22;42987;52.916;6.542;2023-09-19T07:10:39;13.50;99.90
57108;DHT22;42987;52.916;6.542;2023-09-19T07:13:13;13.60;99.90
57108;DHT22;42987;52.916;6.542;2023-09-19T07:15:42;13.70;99.90
57108;DHT22;42987;52.916;6.542;2023-09-19T07:18:12;13.80;99.90
57108;DHT22;42987;52.916;6.542;2023-09-19T07:20:40;13.90;99.90
57108;DHT22;42987;52.916;6.542;2023-09-19T07:23:11;13.90;99.90
57108;DHT22;42987;52.916;6.542;2023-09-19T07:25:40;14.00;99.90
57108;DHT22;42987;52.916;6.542;2023-09-19T07:28:06;14.00;99.90
57108;DHT22;42987;52.916;6.542;2023-09-19T07:30:31;14.00;99.90
57108;DHT22;42987;52.916;6.542;2023-09-19T07:32:57;14.10;99.90
57108;DHT22;42987;52.916;6.542;2023-09-19T07:35:23;14.20;99.90
57108;DHT22;42987;52.916;6.542;2023-09-19T07:37:49;14.20;99.90
57108;DHT22;42987;52.916;6.542;2023-09-19T07:40:15;14.20;99.90
57108;DHT22;42987;52.916;6.542;2023-09-19T07:42:41;14.30;99.90
57108;DHT22;42987;52.916;6.542;2023-09-19T07:45:10;14.30;99.90
57108;DHT22;42987;52.916;6.542;2023-09-19T07:47:43;14.30;99.90
57108;DHT22;42987;52.916;6.542;2023-09-19T07:50:09;14.20;99.90
57108;DHT22;42987;52.916;6.542;2023-09-19T07:52:35;14.30;99.90
57108;DHT22;42987;52.916;6.542;2023-09-19T07:55:01;14.40;99.90
57108;DHT22;42987;52.916;6.542;2023-09-19T07:57:31;14.60;99.90
57108;DHT22;42987;52.916;6.542;2023-09-19T07:59:59;14.80;99.90
57108;DHT22;42987;52.916;6.542;2023-09-19T08:02:25;14.80;99.90
57108;DHT22;42987;52.916;6.542;2023-09-19T08:04:51;14.90;99.90
57108;DHT22;42987;52.916;6.542;2023-09-19T08:07:17;14.90;99.90
57108;DHT22;42987;52.916;6.542;2023-09-19T08:09:43;15.00;99.90
57108;DHT22;42987;52.916;6.542;2023-09-19T08:12:14;15.00;99.90
57108;DHT22;42987;52.916;6.542;2023-09-19T08:14:40;15.00;99.90
57108;DHT22;42987;52.916;6.542;2023-09-19T08:17:08;15.10;99.90
57108;DHT22;42987;52.916;6.542;2023-09-19T08:19:34;15.20;99.90
57108;DHT22;42987;52.916;6.542;2023-09-19T08:22:00;15.20;99.90
57108;DHT22;42987;52.916;6.542;2023-09-19T08:24:29;15.30;99.90
57108;DHT22;42987;52.916;6.542;2023-09-19T08:26:55;15.50;99.90
57108;DHT22;42987;52.916;6.542;2023-09-19T08:29:21;15.50;99.90
57108;DHT22;42987;52.916;6.542;2023-09-19T08:31:56;15.60;99.90
57108;DHT22;42987;52.916;6.542;2023-09-19T08:34:25;15.60;99.90
57108;DHT22;42987;52.916;6.542;2023-09-19T08:36:51;15.70;99.90
57108;DHT22;42987;52.916;6.542;2023-09-19T08:39:18;15.70;99.90
57108;DHT22;42987;52.916;6.542;2023-09-19T08:41:44;15.70;99.90
57108;DHT22;42987;52.916;6.542;2023-09-19T08:44:10;15.80;99.90
57108;DHT22;42987;52.916;6.542;2023-09-19T08:46:36;15.80;99.90
57108;DHT22;42987;52.916;6.542;2023-09-19T08:49:04;15.90;99.90
57108;DHT22;42987;52.916;6.542;2023-09-19T08:56:30;16.10;99.90
57108;DHT22;42987;52.916;6.542;2023-09-19T08:59:05;16.10;99.90
57108;DHT22;42987;52.916;6.542;2023-09-19T09:01:33;16.20;99.90
57108;DHT22;42987;52.916;6.542;2023-09-19T09:03:59;16.20;99.90
57108;DHT22;42987;52.916;6.542;2023-09-19T09:06:25;16.30;99.90
57108;DHT22;42987;52.916;6.542;2023-09-19T09:08:51;16.30;99.90
57108;DHT22;42987;52.916;6.542;2023-09-19T09:11:17;16.40;99.90
57108;DHT22;42987;52.916;6.542;2023-09-19T09:13:46;16.50;99.90
57108;DHT22;42987;52.916;6.542;2023-09-19T09:16:15;16.60;99.90
57108;DHT22;42987;52.916;6.542;2023-09-19T09:18:44;16.70;99.90
57108;DHT22;42987;52.916;6.542;2023-09-19T09:21:11;16.70;99.90
57108;DHT22;42987;52.916;6.542;2023-09-19T09:23:39;16.80;99.90
57108;DHT22;42987;52.916;6.542;2023-09-19T09:26:04;17.00;99.90
57108;DHT22;42987;52.916;6.542;2023-09-19T09:28:32;17.00;99.90
57108;DHT22;42987;52.916;6.542;2023-09-19T09:30:59;17.10;99.90
57108;DHT22;42987;52.916;6.542;2023-09-19T09:33:25;17.20;99.90
57108;DHT22;42987;52.916;6.542;2023-09-19T09:35:54;17.20;99.90
57108;DHT22;42987;52.916;6.542;2023-09-19T09:38:24;17.20;99.90
57108;DHT22;42987;52.916;6.542;2023-09-19T09:40:53;17.20;99.90
57108;DHT22;42987;52.916;6.542;2023-09-19T09:43:30;17.30;99.90
57108;DHT22;42987;52.916;6.542;2023-09-19T09:49:02;17.40;99.90
57108;DHT22;42987;52.916;6.542;2023-09-19T09:51:50;17.40;99.90
57108;DHT22;42987;52.916;6.542;2023-09-19T09:54:26;17.50;99.90
57108;DHT22;42987;52.916;6.542;2023-09-19T09:56:59;17.50;99.90
57108;DHT22;42987;52.916;6.542;2023-09-19T10:02:43;17.40;99.90
57108;DHT22;42987;52.916;6.542;2023-09-19T10:07:46;17.60;99.90
57108;DHT22;42987;52.916;6.542;2023-09-19T10:10:33;17.50;99.90
57108;DHT22;42987;52.916;6.542;2023-09-19T10:13:12;17.50;99.90
57108;DHT22;42987;52.916;6.542;2023-09-19T10:15:39;17.60;99.90
57108;DHT22;42987;52.916;6.542;2023-09-19T10:18:11;17.70;99.90
57108;DHT22;42987;52.916;6.542;2023-09-19T10:20:43;17.80;99.90
57108;DHT22;42987;52.916;6.542;2023-09-19T10:23:11;17.70;99.90
57108;DHT22;42987;52.916;6.542;2023-09-19T10:25:43;17.70;99.90
57108;DHT22;42987;52.916;6.542;2023-09-19T10:28:13;17.70;99.90
57108;DHT22;42987;52.916;6.542;2023-09-19T10:30:43;17.80;99.90
57108;DHT22;42987;52.916;6.542;2023-09-19T10:33:19;17.90;99.90
57108;DHT22;42987;52.916;6.542;2023-09-19T10:35:49;17.90;99.90
57108;DHT22;42987;52.916;6.542;2023-09-19T10:38:17;17.90;99.90
57108;DHT22;42987;52.916;6.542;2023-09-19T10:40:44;17.90;99.90
57108;DHT22;42987;52.916;6.542;2023-09-19T10:43:17;17.90;99.90
57108;DHT22;42987;52.916;6.542;2023-09-19T10:45:43;17.90;99.90
57108;DHT22;42987;52.916;6.542;2023-09-19T10:48:09;18.00;99.90
57108;DHT22;42987;52.916;6.542;2023-09-19T10:50:36;18.00;99.90
57108;DHT22;42987;52.916;6.542;2023-09-19T10:53:07;18.10;99.90
57108;DHT22;42987;52.916;6.542;2023-09-19T10:55:36;18.10;99.90
57108;DHT22;42987;52.916;6.542;2023-09-19T10:58:02;18.20;99.90
57108;DHT22;42987;52.916;6.542;2023-09-19T11:00:52;18.10;99.90
57108;DHT22;42987;52.916;6.542;2023-09-19T11:03:19;18.10;99.90
57108;DHT22;42987;52.916;6.542;2023-09-19T11:14:13;18.50;99.90
57108;DHT22;42987;52.916;6.542;2023-09-19T11:16:39;18.50;99.90
57108;DHT22;42987;52.916;6.542;2023-09-19T11:19:05;18.50;99.90
57108;DHT22;42987;52.916;6.542;2023-09-19T11:26:47;18.40;99.90
57108;DHT22;42987;52.916;6.542;2023-09-19T11:29:32;18.40;99.90
57108;DHT22;42987;52.916;6.542;2023-09-19T11:31:58;18.40;99.90
57108;DHT22;42987;52.916;6.542;2023-09-19T11:40:07;18.50;99.90
57108;DHT22;42987;52.916;6.542;2023-09-19T11:45:07;18.60;99.90
57108;DHT22;42987;52.916;6.542;2023-09-19T11:47:55;18.50;99.90
57108;DHT22;42987;52.916;6.542;2023-09-19T11:50:22;18.40;99.90
57108;DHT22;42987;52.916;6.542;2023-09-19T11:52:50;18.40;99.90
57108;DHT22;42987;52.916;6.542;2023-09-19T11:55:16;18.40;99.90
57108;DHT22;42987;52.916;6.542;2023-09-19T11:57:47;18.30;99.90
57108;DHT22;42987;52.916;6.542;2023-09-19T12:00:22;18.30;99.90
57108;DHT22;42987;52.916;6.542;2023-09-19T12:02:49;18.30;99.90
57108;DHT22;42987;52.916;6.542;2023-09-19T12:05:27;18.20;99.90
57108;DHT22;42987;52.916;6.542;2023-09-19T12:07:56;18.20;99.90
57108;DHT22;42987;52.916;6.542;2023-09-19T12:10:22;18.20;99.90
57108;DHT22;42987;52.916;6.542;2023-09-19T12:12:49;18.10;99.90
57108;DHT22;42987;52.916;6.542;2023-09-19T12:15:15;18.10;99.90
57108;DHT22;42987;52.916;6.542;2023-09-19T12:17:43;18.10;99.90
57108;DHT22;42987;52.916;6.542;2023-09-19T12:20:09;18.00;99.90
57108;DHT22;42987;52.916;6.542;2023-09-19T12:22:39;18.00;99.90
57108;DHT22;42987;52.916;6.542;2023-09-19T12:25:05;17.90;99.90
57108;DHT22;42987;52.916;6.542;2023-09-19T12:27:31;17.90;99.90
57108;DHT22;42987;52.916;6.542;2023-09-19T12:30:08;17.90;99.90
57108;DHT22;42987;52.916;6.542;2023-09-19T12:32:35;17.80;99.90
57108;DHT22;42987;52.916;6.542;2023-09-19T12:35:01;17.80;99.90
57108;DHT22;42987;52.916;6.542;2023-09-19T12:37:32;17.80;99.90
57108;DHT22;42987;52.916;6.542;2023-09-19T12:40:07;17.90;99.90
57108;DHT22;42987;52.916;6.542;2023-09-19T12:42:46;17.90;99.90
57108;DHT22;42987;52.916;6.542;2023-09-19T12:45:12;17.90;99.90
57108;DHT22;42987;52.916;6.542;2023-09-19T12:47:40;17.90;99.90
57108;DHT22;42987;52.916;6.542;2023-09-19T12:50:09;18.00;99.90
57108;DHT22;42987;52.916;6.542;2023-09-19T12:52:43;18.00;99.90
57108;DHT22;42987;52.916;6.542;2023-09-19T12:55:19;18.00;99.90
57108;DHT22;42987;52.916;6.542;2023-09-19T12:57:54;18.00;99.90
57108;DHT22;42987;52.916;6.542;2023-09-19T13:00:20;18.00;99.90
57108;DHT22;42987;52.916;6.542;2023-09-19T13:08:29;17.90;99.90
57108;DHT22;42987;52.916;6.542;2023-09-19T13:11:03;18.00;99.90
57108;DHT22;42987;52.916;6.542;2023-09-19T13:13:33;17.90;99.90
57108;DHT22;42987;52.916;6.542;2023-09-19T13:15:59;18.00;99.90
57108;DHT22;42987;52.916;6.542;2023-09-19T13:18:27;17.90;99.90
57108;DHT22;42987;52.916;6.542;2023-09-19T13:21:05;17.90;99.90
57108;DHT22;42987;52.916;6.542;2023-09-19T13:23:31;17.90;99.90
57108;DHT22;42987;52.916;6.542;2023-09-19T13:25:56;17.90;99.90
57108;DHT22;42987;52.916;6.542;2023-09-19T13:28:22;17.90;99.90
57108;DHT22;42987;52.916;6.542;2023-09-19T13:30:47;17.90;99.90
57108;DHT22;42987;52.916;6.542;2023-09-19T13:33:13;17.90;99.90
57108;DHT22;42987;52.916;6.542;2023-09-19T13:35:46;17.90;99.90
57108;DHT22;42987;52.916;6.542;2023-09-19T13:38:13;17.90;99.90
57108;DHT22;42987;52.916;6.542;2023-09-19T13:40:39;18.00;99.90
57108;DHT22;42987;52.916;6.542;2023-09-19T13:43:07;18.00;99.90
57108;DHT22;42987;52.916;6.542;2023-09-19T13:45:33;18.00;99.90
57108;DHT22;42987;52.916;6.542;2023-09-19T13:47:59;18.00;99.90
57108;DHT22;42987;52.916;6.542;2023-09-19T13:50:25;18.00;99.90
57108;DHT22;42987;52.916;6.542;2023-09-19T13:52:54;18.00;99.90
57108;DHT22;42987;52.916;6.542;2023-09-19T13:55:20;18.00;99.90
57108;DHT22;42987;52.916;6.542;2023-09-19T13:57:46;18.00;99.90
57108;DHT22;42987;52.916;6.542;2023-09-19T14:00:15;17.90;99.90
57108;DHT22;42987;52.916;6.542;2023-09-19T14:02:45;18.00;99.90
57108;DHT22;42987;52.916;6.542;2023-09-19T14:05:14;18.00;99.90
57108;DHT22;42987;52.916;6.542;2023-09-19T14:07:42;18.00;99.90
57108;DHT22;42987;52.916;6.542;2023-09-19T14:10:11;18.10;99.90
57108;DHT22;42987;52.916;6.542;2023-09-19T14:12:39;18.10;99.90
57108;DHT22;42987;52.916;6.542;2023-09-19T14:15:09;18.20;99.90
57108;DHT22;42987;52.916;6.542;2023-09-19T14:17:34;18.20;99.90
57108;DHT22;42987;52.916;6.542;2023-09-19T14:20:00;18.20;99.90
57108;DHT22;42987;52.916;6.542;2023-09-19T14:22:25;18.30;99.90
57108;DHT22;42987;52.916;6.542;2023-09-19T14:24:51;18.20;99.90
57108;DHT22;42987;52.916;6.542;2023-09-19T14:27:18;18.30;99.90
57108;DHT22;42987;52.916;6.542;2023-09-19T14:29:43;18.30;99.90
57108;DHT22;42987;52.916;6.542;2023-09-19T14:32:09;18.30;99.90
57108;DHT22;42987;52.916;6.542;2023-09-19T14:34:35;18.30;99.90
57108;DHT22;42987;52.916;6.542;2023-09-19T14:37:10;18.30;99.90
57108;DHT22;42987;52.916;6.542;2023-09-19T14:39:36;18.30;99.90
57108;DHT22;42987;52.916;6.542;2023-09-19T14:42:04;18.30;99.90
57108;DHT22;42987;52.916;6.542;2023-09-19T14:44:30;18.30;99.90
57108;DHT22;42987;52.916;6.542;2023-09-19T14:46:55;18.30;99.90
57108;DHT22;42987;52.916;6.542;2023-09-19T14:49:21;18.30;99.90
57108;DHT22;42987;52.916;6.542;2023-09-19T14:51:47;18.30;99.90
57108;DHT22;42987;52.916;6.542;2023-09-19T14:54:17;18.30;99.90
57108;DHT22;42987;52.916;6.542;2023-09-19T14:56:44;18.20;99.90
57108;DHT22;42987;52.916;6.542;2023-09-19T14:59:10;18.30;99.90
57108;DHT22;42987;52.916;6.542;2023-09-19T15:01:41;18.30;99.90
57108;DHT22;42987;52.916;6.542;2023-09-19T15:04:07;18.20;99.90
57108;DHT22;42987;52.916;6.542;2023-09-19T15:06:34;18.20;99.90
57108;DHT22;42987;52.916;6.542;2023-09-19T15:09:00;18.20;99.90
57108;DHT22;42987;52.916;6.542;2023-09-19T15:11:26;18.20;99.90
57108;DHT22;42987;52.916;6.542;2023-09-19T15:13:52;18.20;99.90
57108;DHT22;42987;52.916;6.542;2023-09-19T15:16:19;18.10;99.90
57108;DHT22;42987;52.916;6.542;2023-09-19T15:18:45;18.00;99.90
57108;DHT22;42987;52.916;6.542;2023-09-19T15:21:13;17.90;99.90
57108;DHT22;42987;52.916;6.542;2023-09-19T15:23:40;17.70;99.90
57108;DHT22;42987;52.916;6.542;2023-09-19T15:26:07;17.60;99.90
57108;DHT22;42987;52.916;6.542;2023-09-19T15:28:33;17.50;99.90
57108;DHT22;42987;52.916;6.542;2023-09-19T15:31:00;17.60;99.90
57108;DHT22;42987;52.916;6.542;2023-09-19T15:33:29;17.50;99.90
57108;DHT22;42987;52.916;6.542;2023-09-19T15:38:29;17.60;99.90
57108;DHT22;42987;52.916;6.542;2023-09-19T15:40:55;17.70;99.90
57108;DHT22;42987;52.916;6.542;2023-09-19T15:43:21;17.70;99.90
57108;DHT22;42987;52.916;6.542;2023-09-19T15:45:49;17.80;99.90
57108;DHT22;42987;52.916;6.542;2023-09-19T15:48:14;17.70;99.90
57108;DHT22;42987;52.916;6.542;2023-09-19T15:50:40;17.80;99.90
57108;DHT22;42987;52.916;6.542;2023-09-19T15:53:10;17.70;99.90
57108;DHT22;42987;52.916;6.542;2023-09-19T15:55:39;17.70;99.90
57108;DHT22;42987;52.916;6.542;2023-09-19T15:58:05;17.60;99.90
57108;DHT22;42987;52.916;6.542;2023-09-19T16:00:34;17.60;99.90
57108;DHT22;42987;52.916;6.542;2023-09-19T16:03:01;17.70;99.90
57108;DHT22;42987;52.916;6.542;2023-09-19T16:05:27;17.70;99.90
57108;DHT22;42987;52.916;6.542;2023-09-19T16:07:53;17.70;99.90
57108;DHT22;42987;52.916;6.542;2023-09-19T16:10:19;17.80;99.90
57108;DHT22;42987;52.916;6.542;2023-09-19T16:12:45;17.80;99.90
57108;DHT22;42987;52.916;6.542;2023-09-19T16:15:10;17.70;99.90
57108;DHT22;42987;52.916;6.542;2023-09-19T16:17:37;17.70;99.90
57108;DHT22;42987;52.916;6.542;2023-09-19T16:20:03;17.70;99.90
57108;DHT22;42987;52.916;6.542;2023-09-19T16:22:28;17.50;99.90
57108;DHT22;42987;52.916;6.542;2023-09-19T16:24:54;17.40;99.90
57108;DHT22;42987;52.916;6.542;2023-09-19T16:27:20;17.30;99.90
57108;DHT22;42987;52.916;6.542;2023-09-19T16:29:47;17.20;99.90